This is the latest recevied weather packets stored in our database for station/object KC1OEK-13. If no packets are shown the sender has not sent any weather packets the latest 10 day(s).
| Time | Temp. | Humidity | Pressure | Rain* | Wind** | Luminosity | Snow |
|---|---|---|---|---|---|---|---|
| 1787955361 | 26.67° C | 70% | 1018.6 hPa | 0 mm | - | 60 W/m² | - |
| 1787955060 | 27.78° C | 67% | 1018.5 hPa | 0 mm | - | 82 W/m² | - |
| 1787954756 | 27.78° C | 65% | 1018.5 hPa | 0 mm | - | 116 W/m² | - |
| 1787954451 | 28.33° C | 64% | 1018.4 hPa | 0 mm | - | 128 W/m² | - |
| 1787954145 | 27.78° C | 65% | 1018.6 hPa | 0 mm | - | 140 W/m² | - |
| 1787953844 | 27.22° C | 65% | 1018.6 hPa | 0 mm | - | 149 W/m² | - |
| 1787953539 | 27.78° C | 63% | 1018.6 hPa | 0 mm | - | 154 W/m² | - |
| 1787953239 | 28.33° C | 62% | 1018.4 hPa | 0 mm | - | 171 W/m² | - |
| 1787952936 | 28.33° C | 64% | 1018.5 hPa | 0 mm | - | 186 W/m² | - |
| 1787952631 | 28.89° C | 61% | 1018.6 hPa | 0 mm | - | 200 W/m² | - |
| 1787952330 | 28.33° C | 63% | 1018.3 hPa | 0 mm | - | 215 W/m² | - |
| 1787952027 | 28.33° C | 63% | 1018.5 hPa | 0 mm | - | 224 W/m² | - |
| 1787951726 | 28.89° C | 64% | 1018.5 hPa | 0 mm | - | 236 W/m² | - |
| 1787951422 | 27.78° C | 65% | 1018.6 hPa | 0 mm | - | 255 W/m² | - |
| 1787951118 | 27.78° C | 63% | 1018.5 hPa | 0 mm | - | 263 W/m² | - |
| 1787950814 | 28.33° C | 62% | 1018.5 hPa | 0 mm | - | 284 W/m² | - |
| 1787950509 | 28.33° C | 64% | 1018.6 hPa | 0 mm | - | 300 W/m² | - |
| 1787950205 | 28.33° C | 63% | 1018.3 hPa | 0 mm | - | 318 W/m² | - |
| 1787949901 | 28.33° C | 64% | 1018.3 hPa | 0 mm | - | 332 W/m² | - |
| 1787949595 | 27.78° C | 66% | 1018.3 hPa | 0 mm | - | 350 W/m² | - |
| 1787949291 | 27.78° C | 66% | 1018.4 hPa | 0 mm | - | 362 W/m² | - |
| 1787948985 | 27.78° C | 65% | 1018.3 hPa | 0 mm | - | 377 W/m² | - |
| 1787948681 | 27.22° C | 67% | 1018.2 hPa | 0 mm | - | 394 W/m² | - |
| 1787948377 | 27.22° C | 66% | 1018.3 hPa | 0 mm | - | 176 W/m² | - |
| 1787948076 | 28.33° C | 65% | 1018.3 hPa | 0 mm | - | 193 W/m² | - |
* Rain latest hour (hover to see other rain measurements)
** Current wind speed in m/s (hover to see current wind gust speed)